Terminal Aerodrome Forecast
Issued by NWS

Home | Current Version | Previous Version | Text Only | Print | Product List | Glossary On
Versions: 1 2 3 4 5 6 7 8 9 10 11 12
425
FTUS46 KHNX 060546
TAFMCE
TAF
KMCE 060546Z 0606/0706 30008KT P6SM VCSH SCT060 BKN120
     FM061600 VRB04KT P6SM VCSH BKN040 PROB30 0619/0701 3SM TSRA
      BKN025CB=

USA.gov is the U.S. government's official web portal to all federal, state and local government web resources and services.